Time;durP1;ratioP1;P1;durP2;ratioP2;P2;SDS_P1;SDS_P2;PMS_P1;PMS_P2;Temp;Humidity;BMP_temperature;BMP_pressure;BME280_temperature;BME280_humidity;BME280_pressure;Samples;Min_cycle;Max_cycle;Signal;HPM_P1;HPM_P2
2023/08/08 00:01:05;;;;;;;2.08;0.52;;;;;;;15.31;nan;100580.47;5017138;28;20424;-64
2023/08/08 00:03:31;;;;;;;2.25;0.70;;;;;;;15.30;nan;100573.59;5009610;28;20026;-69
2023/08/08 00:05:56;;;;;;;0.93;0.55;;;;;;;15.36;nan;100588.47;5019986;28;20025;-64
2023/08/08 00:08:21;;;;;;;0.70;0.50;;;;;;;15.02;nan;100538.31;5017560;28;20080;-69
2023/08/08 00:10:47;;;;;;;0.80;0.57;;;;;;;15.34;nan;100582.63;5023687;28;20036;-69
2023/08/08 00:13:12;;;;;;;0.77;0.57;;;;;;;15.25;nan;100569.03;5018494;28;20104;-69
2023/08/08 00:15:38;;;;;;;2.13;0.70;;;;;;;15.30;nan;100579.69;5020163;28;20055;-69
2023/08/08 00:18:03;;;;;;;0.98;0.60;;;;;;;15.22;nan;100574.03;5018674;28;20046;-69
2023/08/08 00:20:29;;;;;;;1.65;0.50;;;;;;;15.27;nan;100580.16;5023028;28;20025;-69
2023/08/08 00:22:54;;;;;;;1.88;0.60;;;;;;;15.17;nan;100566.81;5018431;28;20511;-69
2023/08/08 00:25:20;;;;;;;1.80;0.70;;;;;;;15.25;nan;100578.81;5019904;28;20037;-68
2023/08/08 00:27:45;;;;;;;1.17;0.70;;;;;;;15.16;nan;100578.50;5020152;28;20373;-70
2023/08/08 00:30:13;;;;;;;1.40;0.70;;;;;;;15.15;nan;100568.13;5020015;28;20026;-69
2023/08/08 00:32:38;;;;;;;1.38;0.85;;;;;;;15.20;nan;100584.09;5021320;28;20040;-70
2023/08/08 00:35:04;;;;;;;1.08;0.77;;;;;;;15.15;nan;100582.19;5020149;28;20033;-69
2023/08/08 00:37:29;;;;;;;1.15;0.88;;;;;;;15.14;nan;100577.16;5018525;28;20432;-70
2023/08/08 00:39:55;;;;;;;4.50;0.80;;;;;;;15.09;nan;100572.59;5017218;28;20022;-70
2023/08/08 00:42:20;;;;;;;1.40;0.80;;;;;;;15.04;nan;100575.97;5018564;28;20034;-69
2023/08/08 00:44:45;;;;;;;2.58;0.60;;;;;;;15.01;nan;100570.38;5015847;28;20113;-65
2023/08/08 00:47:11;;;;;;;1.40;0.88;;;;;;;15.03;nan;100582.31;5018812;28;20029;-70
2023/08/08 00:49:37;;;;;;;1.20;0.80;;;;;;;15.00;nan;100582.84;5023083;28;20040;-70
2023/08/08 00:52:03;;;;;;;2.28;0.80;;;;;;;14.98;nan;100582.28;5013971;28;20037;-70
2023/08/08 00:54:30;;;;;;;1.63;1.10;;;;;;;14.96;nan;100576.41;5014299;28;20032;-66
2023/08/08 00:56:55;;;;;;;1.95;0.80;;;;;;;14.96;nan;100583.56;5018899;28;20064;-65
2023/08/08 00:59:21;;;;;;;1.80;1.00;;;;;;;14.94;nan;100575.06;5019914;28;20457;-66
2023/08/08 01:01:47;;;;;;;3.10;0.90;;;;;;;14.81;nan;100565.66;5016442;28;20111;-68
2023/08/08 01:04:12;;;;;;;3.63;1.02;;;;;;;14.89;nan;100581.94;5013972;28;20452;-67
2023/08/08 01:06:41;;;;;;;0.98;0.80;;;;;;;14.86;nan;100581.63;5020653;28;20766;-65
2023/08/08 01:09:11;;;;;;;2.80;1.30;;;;;;;14.85;nan;100580.03;5017534;28;20037;-64
2023/08/08 01:11:37;;;;;;;1.38;0.65;;;;;;;14.83;nan;100582.13;5015917;28;20496;-64
2023/08/08 01:14:06;;;;;;;1.38;0.88;;;;;;;14.72;nan;100567.16;5019480;28;20037;-64
2023/08/08 01:16:32;;;;;;;2.45;1.00;;;;;;;14.74;nan;100576.44;5017348;28;20113;-64
2023/08/08 01:18:58;;;;;;;1.40;0.88;;;;;;;14.75;nan;100579.91;5017486;28;20274;-64
2023/08/08 01:21:27;;;;;;;2.65;0.65;;;;;;;14.72;nan;100578.53;5017337;28;20032;-64
2023/08/08 01:23:56;;;;;;;2.60;1.00;;;;;;;14.77;nan;100596.34;5016821;28;20021;-63
2023/08/08 01:26:22;;;;;;;2.78;0.88;;;;;;;14.68;nan;100575.59;5017991;28;20355;-64
2023/08/08 01:28:47;;;;;;;1.00;0.70;;;;;;;14.72;nan;100586.50;5016472;28;20994;-64
2023/08/08 01:31:12;;;;;;;1.13;0.90;;;;;;;14.61;nan;100560.94;5021563;28;20445;-64
2023/08/08 01:33:38;;;;;;;4.35;1.00;;;;;;;14.73;nan;100587.31;5016049;28;20030;-64
2023/08/08 01:36:17;;;;;;;2.63;0.90;;;;;;;14.71;nan;100586.75;5021136;28;20025;-64
2023/08/08 01:38:44;;;;;;;;;;;;;;;14.74;nan;100587.06;5017795;28;20025;-65
2023/08/08 01:41:09;;;;;;;2.45;0.90;;;;;;;14.73;nan;100592.63;5020339;28;19916;-64
2023/08/08 01:43:37;;;;;;;3.20;1.33;;;;;;;14.69;nan;100587.00;5016857;28;20025;-64
2023/08/08 01:46:04;;;;;;;3.22;1.35;;;;;;;14.62;nan;100579.22;5019170;28;20034;-63
2023/08/08 01:48:29;;;;;;;1.67;1.20;;;;;;;14.68;nan;100588.06;5017338;28;20476;-65
2023/08/08 01:50:54;;;;;;;1.73;1.05;;;;;;;14.67;nan;100595.19;5017269;28;20033;-64
2023/08/08 01:53:20;;;;;;;2.35;1.20;;;;;;;14.66;nan;100590.16;5016317;28;20038;-64
2023/08/08 01:55:45;;;;;;;1.20;0.90;;;;;;;14.70;nan;100595.75;5021219;28;20071;-68
2023/08/08 01:58:11;;;;;;;1.30;1.05;;;;;;;14.63;nan;100583.50;5018889;28;20030;-66
2023/08/08 02:00:36;;;;;;;1.00;0.90;;;;;;;14.72;nan;100594.44;5018557;28;20507;-67
2023/08/08 02:03:02;;;;;;;1.90;1.00;;;;;;;14.68;nan;100593.38;5017953;28;20061;-67
2023/08/08 02:05:27;;;;;;;2.50;1.00;;;;;;;14.69;nan;100592.31;5017440;28;20067;-67
2023/08/08 02:07:53;;;;;;;2.33;0.80;;;;;;;14.75;nan;100598.44;5021481;28;20804;-67
2023/08/08 02:10:18;;;;;;;1.58;0.90;;;;;;;14.79;nan;100604.88;5017679;28;20033;-67
2023/08/08 02:12:44;;;;;;;2.10;0.85;;;;;;;14.77;nan;100593.72;5016365;28;20087;-66
2023/08/08 02:15:09;;;;;;;0.57;0.57;;;;;;;14.85;nan;100598.59;5019974;28;20471;-67
2023/08/08 02:17:37;;;;;;;1.08;0.70;;;;;;;14.88;nan;100595.44;5017435;28;20033;-67
2023/08/08 02:20:03;;;;;;;2.53;0.85;;;;;;;14.90;nan;100601.28;5014932;28;20511;-67
2023/08/08 02:22:29;;;;;;;3.42;1.00;;;;;;;14.88;nan;100595.44;5017444;28;20068;-67
2023/08/08 02:24:54;;;;;;;2.97;0.70;;;;;;;14.90;nan;100593.34;5013343;28;20042;-67
2023/08/08 02:27:19;;;;;;;0.77;0.70;;;;;;;14.89;nan;100589.06;5017393;28;20044;-66
2023/08/08 02:29:45;;;;;;;1.25;0.80;;;;;;;14.91;nan;100596.78;5016967;28;20021;-67
2023/08/08 02:32:10;;;;;;;1.00;0.90;;;;;;;14.82;nan;100583.16;5022802;28;20080;-68
2023/08/08 02:34:35;;;;;;;1.55;0.93;;;;;;;14.83;nan;100571.53;5021638;28;20026;-68
2023/08/08 02:37:01;;;;;;;1.15;1.00;;;;;;;14.90;nan;100585.38;5019266;28;20052;-66
2023/08/08 02:39:26;;;;;;;1.52;0.90;;;;;;;14.90;nan;100590.69;5015983;28;20029;-67
2023/08/08 02:41:52;;;;;;;1.73;1.25;;;;;;;14.71;nan;100566.34;5015445;28;20056;-66
2023/08/08 02:44:19;;;;;;;1.25;0.90;;;;;;;14.96;nan;100612.75;5017784;28;20040;-66
2023/08/08 02:46:44;;;;;;;2.38;0.90;;;;;;;14.93;nan;100607.94;5017212;28;20033;-67
2023/08/08 02:49:10;;;;;;;1.45;1.00;;;;;;;14.96;nan;100626.81;5020117;28;20029;-66
2023/08/08 02:51:35;;;;;;;1.58;0.95;;;;;;;14.81;nan;100610.72;5016568;28;20029;-66
2023/08/08 02:54:01;;;;;;;1.65;0.90;;;;;;;14.91;nan;100616.13;5016573;28;20104;-67
2023/08/08 02:56:26;;;;;;;0.93;0.73;;;;;;;14.92;nan;100625.72;5014313;28;20022;-65
2023/08/08 02:58:51;;;;;;;1.67;0.90;;;;;;;14.91;nan;100624.09;5013923;28;20105;-64
2023/08/08 03:01:17;;;;;;;3.67;0.90;;;;;;;14.70;nan;100590.44;5014977;28;20811;-64
2023/08/08 03:03:42;;;;;;;1.60;0.80;;;;;;;14.87;nan;100620.34;5018041;28;20353;-64
2023/08/08 03:06:08;;;;;;;3.70;0.80;;;;;;;14.91;nan;100623.31;5018790;28;20061;-64
2023/08/08 03:08:34;;;;;;;0.95;0.85;;;;;;;14.91;nan;100624.09;5020905;28;20450;-69
2023/08/08 03:10:59;;;;;;;2.95;0.90;;;;;;;14.92;nan;100620.41;5020982;28;20075;-68
2023/08/08 03:13:25;;;;;;;0.80;0.80;;;;;;;14.86;nan;100621.38;5016934;28;20500;-69
2023/08/08 03:15:50;;;;;;;2.00;0.80;;;;;;;14.93;nan;100627.31;5022885;28;20028;-69
2023/08/08 03:18:15;;;;;;;2.33;1.00;;;;;;;14.93;nan;100626.50;5019370;28;20116;-69
2023/08/08 03:20:41;;;;;;;1.98;0.80;;;;;;;14.81;nan;100608.88;5018709;28;20029;-69
2023/08/08 03:23:06;;;;;;;1.25;0.80;;;;;;;14.84;nan;100621.66;5021580;28;20042;-69
2023/08/08 03:25:31;;;;;;;1.42;1.00;;;;;;;14.93;nan;100626.50;5016486;28;20033;-68
2023/08/08 03:27:57;;;;;;;3.13;0.95;;;;;;;14.89;nan;100624.34;5017555;28;20044;-67
2023/08/08 03:30:22;;;;;;;3.92;0.80;;;;;;;14.83;nan;100608.63;5018463;28;20041;-66
2023/08/08 03:32:48;;;;;;;1.30;0.95;;;;;;;14.84;nan;100618.19;5019169;28;20040;-68
2023/08/08 03:35:14;;;;;;;2.65;1.00;;;;;;;14.87;nan;100628.31;5016524;28;20053;-66
2023/08/08 03:37:40;;;;;;;1.95;1.00;;;;;;;14.87;nan;100629.09;5021429;28;20104;-67
2023/08/08 03:40:07;;;;;;;2.22;0.80;;;;;;;14.93;nan;100648.50;5018989;28;20441;-66
2023/08/08 03:42:33;;;;;;;2.33;1.10;;;;;;;14.81;nan;100634.59;5019406;28;20084;-67
2023/08/08 03:44:58;;;;;;;1.58;1.05;;;;;;;14.67;nan;100615.59;5019918;28;20408;-67
2023/08/08 03:47:24;;;;;;;2.03;1.23;;;;;;;14.85;nan;100651.63;5019068;28;20057;-66
2023/08/08 03:49:49;;;;;;;2.33;1.20;;;;;;;14.83;nan;100666.97;5023035;28;20048;-66
2023/08/08 03:52:14;;;;;;;1.40;1.10;;;;;;;14.76;nan;100648.59;5020053;28;20026;-66
2023/08/08 03:54:40;;;;;;;1.20;1.00;;;;;;;14.82;nan;100657.38;5019708;28;20029;-67
2023/08/08 03:57:05;;;;;;;3.35;1.40;;;;;;;14.82;nan;100652.91;5021995;28;20034;-67
2023/08/08 03:59:31;;;;;;;1.23;1.00;;;;;;;14.82;nan;100647.59;5018037;28;20034;-66
2023/08/08 04:01:56;;;;;;;1.00;0.90;;;;;;;14.93;nan;100664.44;5017813;28;20044;-67
2023/08/08 04:04:21;;;;;;;3.13;1.15;;;;;;;14.97;nan;100670.84;5020140;28;20033;-66
2023/08/08 04:06:47;;;;;;;1.98;1.08;;;;;;;14.95;nan;100672.16;5017446;28;20022;-67
2023/08/08 04:09:12;;;;;;;2.50;1.02;;;;;;;14.96;nan;100671.88;5019375;28;20878;-66
2023/08/08 04:11:37;;;;;;;2.58;1.02;;;;;;;14.91;nan;100668.38;5018172;28;20494;-67
2023/08/08 04:14:03;;;;;;;2.33;1.23;;;;;;;15.00;nan;100674.84;5024278;28;20034;-66
2023/08/08 04:16:28;;;;;;;1.55;1.00;;;;;;;15.06;nan;100674.69;5017738;28;20039;-66
2023/08/08 04:18:54;;;;;;;1.20;1.00;;;;;;;15.02;nan;100673.56;5018247;28;20482;-68
2023/08/08 04:21:19;;;;;;;1.90;1.10;;;;;;;14.99;nan;100679.38;5017180;28;20025;-69
2023/08/08 04:23:44;;;;;;;6.47;1.30;;;;;;;15.02;nan;100688.69;5020225;28;20021;-68
2023/08/08 04:26:10;;;;;;;1.10;0.95;;;;;;;14.99;nan;100683.84;5016170;28;20036;-68
2023/08/08 04:28:36;;;;;;;1.73;1.00;;;;;;;15.10;nan;100696.19;5018580;28;20049;-68
2023/08/08 04:31:02;;;;;;;1.27;1.00;;;;;;;15.12;nan;100699.41;5021700;28;20032;-68
2023/08/08 04:33:28;;;;;;;2.10;1.17;;;;;;;15.15;nan;100704.19;5019936;28;20427;-65
2023/08/08 04:35:54;;;;;;;2.47;1.10;;;;;;;15.20;nan;100706.91;5016208;28;20050;-65
2023/08/08 04:38:19;;;;;;;2.38;1.10;;;;;;;15.05;nan;100694.28;5018728;28;20053;-68
2023/08/08 04:40:44;;;;;;;3.50;1.52;;;;;;;15.11;nan;100703.09;5019577;28;20026;-67
2023/08/08 04:43:10;;;;;;;1.55;1.10;;;;;;;15.16;nan;100699.72;5019493;28;20143;-68
2023/08/08 04:45:35;;;;;;;1.85;1.05;;;;;;;15.15;nan;100687.47;5021368;28;20365;-68
2023/08/08 04:48:00;;;;;;;1.75;1.10;;;;;;;15.28;nan;100695.06;5024780;28;20021;-68
2023/08/08 04:50:26;;;;;;;2.15;1.30;;;;;;;15.31;nan;100703.31;5021302;28;20041;-68
2023/08/08 04:52:51;;;;;;;4.20;1.20;;;;;;;15.29;nan;100702.78;5015754;28;20033;-69
2023/08/08 04:55:17;;;;;;;2.67;1.10;;;;;;;15.24;nan;100712.53;5018339;28;20025;-67
2023/08/08 04:57:42;;;;;;;1.92;1.20;;;;;;;15.32;nan;100720.03;5017883;28;20111;-64
2023/08/08 05:00:08;;;;;;;6.30;1.20;;;;;;;15.42;nan;100714.88;5015302;28;20034;-68
2023/08/08 05:02:35;;;;;;;2.35;1.40;;;;;;;15.45;nan;100718.88;5015951;28;20404;-66
2023/08/08 05:05:00;;;;;;;2.90;1.50;;;;;;;15.38;nan;100721.72;5020125;28;20117;-67
2023/08/08 05:07:26;;;;;;;5.85;1.27;;;;;;;15.48;nan;100724.47;5020034;28;20472;-67
2023/08/08 05:09:52;;;;;;;3.78;1.35;;;;;;;15.49;nan;100722.59;5015828;28;20060;-68
2023/08/08 05:12:17;;;;;;;2.97;1.17;;;;;;;15.61;nan;100730.44;5016123;28;20030;-68
2023/08/08 05:14:43;;;;;;;4.38;1.83;;;;;;;15.64;nan;100729.94;5019763;28;20028;-68
2023/08/08 05:17:08;;;;;;;4.40;1.20;;;;;;;15.72;nan;100738.28;5019735;28;20099;-67
2023/08/08 05:19:33;;;;;;;6.28;1.52;;;;;;;15.80;nan;100745.00;5017504;28;20406;-69
2023/08/08 05:21:59;;;;;;;6.72;1.17;;;;;;;15.66;nan;100704.75;5019917;28;20046;-66
2023/08/08 05:24:25;;;;;;;3.85;1.48;;;;;;;15.88;nan;100728.63;5019185;28;20029;-68
2023/08/08 05:26:50;;;;;;;1.85;1.10;;;;;;;16.06;nan;100742.56;5018952;28;20025;-68
2023/08/08 05:29:16;;;;;;;3.88;1.27;;;;;;;16.09;nan;100696.91;5018906;28;20052;-66
2023/08/08 05:31:41;;;;;;;2.05;1.35;;;;;;;;;;5015784;28;20029;-67
2023/08/08 05:34:07;;;;;;;2.37;1.50;;;;;;;;;;5014355;28;20025;-65
2023/08/08 05:36:32;;;;;;;3.72;1.30;;;;;;;;;;5017670;28;20026;-63
2023/08/08 05:38:58;;;;;;;2.25;1.33;;;;;;;;;;5014615;28;20033;-66
2023/08/08 05:41:23;;;;;;;2.42;1.38;;;;;;;16.77;nan;100808.78;5016353;28;20145;-67
2023/08/08 05:43:48;;;;;;;2.15;1.40;;;;;;;16.38;nan;100759.31;5018817;28;20761;-67
2023/08/08 05:46:14;;;;;;;2.05;1.23;;;;;;;16.13;nan;100721.91;5014355;28;20022;-67
2023/08/08 05:48:39;;;;;;;1.75;1.23;;;;;;;16.30;nan;100756.31;5015896;28;20104;-67
2023/08/08 05:51:05;;;;;;;3.17;1.63;;;;;;;16.28;nan;100743.31;5017211;28;20392;-65
2023/08/08 05:53:32;;;;;;;3.60;1.55;;;;;;;16.35;nan;100759.00;5015188;28;20051;-68
2023/08/08 05:55:57;;;;;;;5.68;1.70;;;;;;;16.37;nan;100759.56;5018669;28;20432;-67
2023/08/08 05:58:22;;;;;;;3.10;1.50;;;;;;;16.39;nan;100757.47;5018291;28;20083;-66
2023/08/08 06:00:48;;;;;;;2.20;1.40;;;;;;;16.48;nan;100774.53;5016217;28;20043;-68
2023/08/08 06:03:13;;;;;;;2.03;1.35;;;;;;;16.49;nan;100759.38;5017951;28;20053;-67
2023/08/08 06:05:38;;;;;;;2.38;1.30;;;;;;;16.54;nan;100752.25;5016419;28;20025;-68
2023/08/08 06:08:07;;;;;;;3.08;1.25;;;;;;;16.61;nan;100765.31;5032179;28;20034;-66
2023/08/08 06:10:32;;;;;;;1.75;1.35;;;;;;;16.67;nan;100772.28;5016460;28;20100;-66
2023/08/08 06:12:57;;;;;;;4.15;1.30;;;;;;;16.79;nan;100769.47;5013983;28;20034;-67
2023/08/08 06:15:23;;;;;;;2.28;1.50;;;;;;;16.87;nan;100776.16;5030066;28;20116;-63
2023/08/08 06:17:48;;;;;;;2.55;1.38;;;;;;;16.95;nan;100773.81;5025088;28;20028;-68
2023/08/08 06:20:14;;;;;;;2.88;1.30;;;;;;;16.98;nan;100770.63;5018297;28;20479;-67
2023/08/08 06:22:40;;;;;;;2.38;1.50;;;;;;;16.90;nan;100763.13;5018856;28;20045;-67
2023/08/08 06:25:05;;;;;;;2.05;1.27;;;;;;;17.04;nan;100766.13;5014913;28;20030;-64
2023/08/08 06:27:31;;;;;;;3.88;1.55;;;;;;;17.00;nan;100763.19;5017647;28;20017;-69
2023/08/08 06:29:56;;;;;;;4.32;1.30;;;;;;;17.08;nan;100763.75;5018649;28;20041;-69
2023/08/08 06:32:22;;;;;;;3.17;1.10;;;;;;;17.13;nan;100756.59;5014742;28;20099;-70
2023/08/08 06:34:47;;;;;;;3.22;1.38;;;;;;;17.06;nan;100779.97;5015657;28;20025;-69
2023/08/08 06:37:13;;;;;;;2.63;1.10;;;;;;;17.06;nan;100776.53;5018029;28;20472;-71
2023/08/08 06:39:39;;;;;;;2.50;1.50;;;;;;;17.15;nan;100772.31;5018919;28;20028;-70
2023/08/08 06:42:05;;;;;;;2.15;1.30;;;;;;;17.09;nan;100758.16;5014444;28;20488;-70
2023/08/08 06:44:32;;;;;;;1.42;1.20;;;;;;;17.34;nan;100775.31;5018244;28;20079;-69
2023/08/08 06:46:58;;;;;;;2.40;1.50;;;;;;;17.41;nan;100779.34;5023499;28;20389;-69
2023/08/08 06:49:23;;;;;;;2.42;1.48;;;;;;;17.36;nan;100794.50;5019780;28;20055;-70
2023/08/08 06:51:49;;;;;;;2.22;1.27;;;;;;;17.31;nan;100787.28;5013281;28;20081;-69
2023/08/08 06:54:14;;;;;;;2.63;1.40;;;;;;;17.32;nan;100780.88;5019661;28;20022;-69
2023/08/08 06:56:39;;;;;;;1.95;1.13;;;;;;;17.27;nan;100799.50;5015094;28;20105;-70
2023/08/08 06:59:05;;;;;;;3.95;1.30;;;;;;;17.34;nan;100801.94;5017935;28;20030;-70
2023/08/08 07:01:30;;;;;;;3.05;1.05;;;;;;;17.32;nan;100793.41;5017183;28;20028;-68
2023/08/08 07:03:55;;;;;;;3.47;1.20;;;;;;;17.38;nan;100800.34;5026111;28;20027;-68
2023/08/08 07:06:21;;;;;;;1.42;1.08;;;;;;;17.40;nan;100793.69;5023129;28;20029;-68
2023/08/08 07:08:46;;;;;;;2.83;1.20;;;;;;;17.51;nan;100801.72;5020078;28;20064;-68
2023/08/08 07:11:11;;;;;;;4.63;1.13;;;;;;;17.62;nan;100795.34;5022245;28;20105;-68
2023/08/08 07:13:37;;;;;;;2.55;1.00;;;;;;;17.63;nan;100799.63;5022003;28;20030;-67
2023/08/08 07:16:02;;;;;;;2.22;1.38;;;;;;;17.51;nan;100805.19;5019650;28;20652;-67
2023/08/08 07:18:28;;;;;;;1.92;1.30;;;;;;;17.51;nan;100794.53;5021037;28;20033;-64
2023/08/08 07:20:53;;;;;;;3.60;1.20;;;;;;;17.61;nan;100807.88;5016864;28;20026;-67
2023/08/08 07:23:19;;;;;;;2.40;1.20;;;;;;;17.72;nan;100813.22;5016472;28;20053;-68
2023/08/08 07:25:46;;;;;;;2.75;1.30;;;;;;;17.78;nan;100806.88;5014702;28;20381;-68
2023/08/08 07:28:12;;;;;;;2.65;1.30;;;;;;;17.80;nan;100815.41;5023890;28;20060;-67
2023/08/08 07:30:37;;;;;;;3.08;1.25;;;;;;;17.95;nan;100820.78;5013937;28;20062;-67
2023/08/08 07:33:03;;;;;;;3.88;1.50;;;;;;;18.05;nan;100812.81;5017047;28;20365;-67
2023/08/08 07:35:28;;;;;;;3.35;1.30;;;;;;;17.99;nan;100808.53;5017607;28;20025;-69
2023/08/08 07:37:55;;;;;;;3.00;1.30;;;;;;;18.01;nan;100817.06;5017872;28;20033;-65
2023/08/08 07:40:21;;;;;;;1.90;1.13;;;;;;;18.11;nan;100815.50;5013164;28;20014;-68
2023/08/08 07:42:47;;;;;;;3.13;1.33;;;;;;;18.18;nan;100819.50;5015141;28;20120;-68
2023/08/08 07:45:13;;;;;;;1.50;1.00;;;;;;;18.23;nan;100826.69;5014938;28;20551;-67
2023/08/08 07:47:39;;;;;;;1.02;0.93;;;;;;;18.22;nan;100822.41;5016888;28;20029;-68
2023/08/08 07:50:06;;;;;;;3.70;1.17;;;;;;;18.23;nan;100808.81;5002671;28;20025;-68
2023/08/08 07:52:32;;;;;;;2.95;1.00;;;;;;;18.41;nan;100822.69;5017835;28;20033;-68
2023/08/08 07:54:57;;;;;;;3.63;1.23;;;;;;;18.38;nan;100826.69;5019976;28;20030;-68
2023/08/08 07:57:24;;;;;;;1.75;1.30;;;;;;;18.34;nan;100817.66;5019608;28;20040;-65
2023/08/08 07:59:49;;;;;;;2.22;1.10;;;;;;;18.35;nan;100819.22;5017926;28;20388;-68
2023/08/08 08:02:15;;;;;;;3.15;1.33;;;;;;;18.54;nan;100829.38;5019689;28;20044;-67
2023/08/08 08:04:40;;;;;;;2.55;1.10;;;;;;;18.61;nan;100829.91;5021729;28;20861;-65
2023/08/08 08:07:05;;;;;;;2.53;1.33;;;;;;;18.60;nan;100826.41;5018544;28;20037;-65
2023/08/08 08:09:31;;;;;;;2.58;1.10;;;;;;;18.65;nan;100838.94;5018898;28;20029;-68
2023/08/08 08:11:56;;;;;;;2.45;1.40;;;;;;;18.56;nan;100816.56;5017625;28;20017;-68
2023/08/08 08:14:22;;;;;;;3.30;1.35;;;;;;;18.65;nan;100822.94;5019296;28;20076;-68
2023/08/08 08:16:48;;;;;;;2.40;1.27;;;;;;;18.69;nan;100826.69;5018607;28;20065;-68
2023/08/08 08:19:13;;;;;;;2.72;1.30;;;;;;;18.32;nan;100782.44;5020372;28;20392;-67
2023/08/08 08:21:39;;;;;;;2.95;1.05;;;;;;;18.70;nan;100820.31;5018016;28;20057;-68
2023/08/08 08:24:05;;;;;;;3.97;1.20;;;;;;;18.64;nan;100808.81;5017131;28;20896;-68
2023/08/08 08:26:30;;;;;;;1.75;1.05;;;;;;;18.75;nan;100828.28;5018957;28;20029;-68
2023/08/08 08:28:56;;;;;;;4.13;1.10;;;;;;;18.76;nan;100815.75;5019885;28;20515;-68
2023/08/08 08:31:21;;;;;;;1.77;1.00;;;;;;;18.85;nan;100825.63;5019602;28;20029;-69
2023/08/08 08:33:46;;;;;;;2.95;1.10;;;;;;;18.83;nan;100822.44;5017539;28;20104;-67
2023/08/08 08:36:12;;;;;;;1.80;1.27;;;;;;;18.74;nan;100818.66;5016912;28;20018;-69
2023/08/08 08:38:38;;;;;;;2.42;1.15;;;;;;;18.77;nan;100820.84;5019333;28;20045;-68
2023/08/08 08:41:04;;;;;;;2.25;1.30;;;;;;;18.80;nan;100822.19;5027460;28;20025;-68
2023/08/08 08:43:31;;;;;;;2.97;1.20;;;;;;;18.86;nan;100831.75;5016009;28;20025;-66
2023/08/08 08:46:00;;;;;;;2.67;1.20;;;;;;;18.89;nan;100812.53;5026013;28;20480;-68
2023/08/08 08:48:25;;;;;;;1.42;1.13;;;;;;;19.00;nan;100824.78;5018543;28;20496;-69
2023/08/08 08:50:51;;;;;;;2.90;1.20;;;;;;;19.03;nan;100813.56;5021458;28;20049;-67
2023/08/08 08:53:17;;;;;;;1.67;1.20;;;;;;;19.20;nan;100815.13;5027001;28;20025;-67
2023/08/08 08:55:43;;;;;;;1.60;0.90;;;;;;;19.27;nan;100827.09;5020484;28;20029;-68
2023/08/08 08:58:09;;;;;;;1.33;1.00;;;;;;;19.24;nan;100813.53;5018416;28;20028;-66
2023/08/08 09:00:35;;;;;;;2.58;1.00;;;;;;;19.23;nan;100799.38;5017351;28;20071;-64
2023/08/08 09:03:01;;;;;;;1.45;1.10;;;;;;;19.48;nan;100819.03;5019993;28;20056;-68
2023/08/08 09:05:27;;;;;;;4.43;1.20;;;;;;;19.53;nan;100809.13;5017013;28;20021;-68
2023/08/08 09:07:52;;;;;;;2.67;1.08;;;;;;;19.56;nan;100810.44;5016454;28;20113;-68
2023/08/08 09:10:19;;;;;;;1.33;1.00;;;;;;;19.71;nan;100814.97;5015519;28;20028;-68
2023/08/08 09:12:45;;;;;;;3.70;1.17;;;;;;;19.72;nan;100813.88;5019038;28;20659;-68
2023/08/08 09:15:15;;;;;;;2.35;1.10;;;;;;;19.71;nan;100806.94;5020070;28;20048;-65
2023/08/08 09:17:43;;;;;;;1.10;0.80;;;;;;;19.77;nan;100816.50;5018919;28;20357;-68
2023/08/08 09:20:10;;;;;;;1.42;0.98;;;;;;;19.80;nan;100817.81;5018325;28;20083;-65
2023/08/08 09:22:37;;;;;;;1.42;1.00;;;;;;;19.72;nan;100806.63;5019987;28;20042;-68
2023/08/08 09:25:03;;;;;;;1.13;1.02;;;;;;;19.83;nan;100806.59;5016701;28;20493;-70
2023/08/08 09:27:29;;;;;;;1.63;1.10;;;;;;;19.83;nan;100803.94;5018406;28;20417;-67
2023/08/08 09:29:54;;;;;;;1.23;1.13;;;;;;;19.86;nan;100808.72;5016424;28;20388;-67
2023/08/08 09:32:20;;;;;;;1.90;0.90;;;;;;;19.94;nan;100810.78;5017977;28;20025;-67
2023/08/08 09:34:45;;;;;;;2.85;0.85;;;;;;;19.90;nan;100799.88;5016857;28;20029;-68
2023/08/08 09:37:11;;;;;;;1.92;0.95;;;;;;;20.02;nan;100812.91;5021547;28;20021;-68
2023/08/08 09:39:37;;;;;;;4.63;0.90;;;;;;;20.15;nan;100816.81;5016444;28;20499;-67
2023/08/08 09:42:06;;;;;;;1.80;1.00;;;;;;;20.33;nan;100810.78;5018865;28;20029;-68
2023/08/08 09:44:31;;;;;;;;;;;;;;;20.46;nan;100811.22;5018978;28;20117;-68
2023/08/08 09:46:57;;;;;;;1.20;0.90;;;;;;;20.43;nan;100814.47;5017986;28;20000;-66
2023/08/08 09:49:23;;;;;;;1.15;0.90;;;;;;;20.40;nan;100813.16;5018182;28;20053;-67
2023/08/08 09:51:51;;;;;;;2.58;0.80;;;;;;;20.32;nan;100798.47;5019921;28;20018;-66
2023/08/08 09:54:17;;;;;;;2.28;0.88;;;;;;;20.48;nan;100812.53;5016747;28;20030;-66
2023/08/08 09:56:43;;;;;;;6.05;1.65;;;;;;;20.52;nan;100804.72;5019702;28;20539;-71
2023/08/08 09:59:09;;;;;;;0.60;0.60;;;;;;;20.58;nan;100809.78;5019416;28;20025;-66
2023/08/08 10:01:35;;;;;;;0.88;0.88;;;;;;;20.66;nan;100811.03;5017443;28;20058;-67
2023/08/08 10:04:03;;;;;;;0.70;0.70;;;;;;;20.68;nan;100806.22;5019540;28;20057;-67
2023/08/08 10:06:28;;;;;;;1.30;0.80;;;;;;;20.78;nan;100808.00;5016750;28;20021;-67
2023/08/08 10:08:55;;;;;;;0.80;0.80;;;;;;;20.85;nan;100811.13;5015869;28;20672;-66
2023/08/08 10:11:23;;;;;;;1.83;0.90;;;;;;;20.91;nan;100814.56;5019534;28;20079;-67
2023/08/08 10:13:52;;;;;;;1.33;0.80;;;;;;;20.95;nan;100813.72;5016608;28;20047;-67
2023/08/08 10:16:18;;;;;;;2.15;0.73;;;;;;;20.89;nan;100804.13;5013422;28;20029;-67
2023/08/08 10:19:07;;;;;;;1.05;0.73;;;;;;;20.97;nan;100803.53;5016507;28;20030;-66
2023/08/08 10:21:35;;;;;;;0.77;0.60;;;;;;;21.01;nan;100809.88;5016932;28;20046;-71
2023/08/08 10:24:03;;;;;;;1.83;0.70;;;;;;;20.89;nan;100814.06;5018581;28;20021;-67
2023/08/08 10:26:29;;;;;;;1.23;0.80;;;;;;;20.92;nan;100813.47;5017837;28;20025;-71
2023/08/08 10:28:59;;;;;;;1.00;0.70;;;;;;;20.72;nan;100769.78;5020546;28;20026;-73
2023/08/08 10:31:25;;;;;;;1.90;0.70;;;;;;;20.86;nan;100811.94;5019952;28;20037;-72
2023/08/08 10:34:01;;;;;;;0.95;0.70;;;;;;;20.84;nan;100803.41;5016954;28;20030;-68
2023/08/08 10:36:48;;;;;;;1.20;0.80;;;;;;;20.90;nan;100796.91;5021106;28;20024;-72
2023/08/08 10:39:19;;;;;;;1.50;0.80;;;;;;;21.03;nan;100804.25;5019458;28;20036;-71
2023/08/08 10:41:46;;;;;;;3.17;0.98;;;;;;;21.07;nan;100793.75;5015644;28;20021;-72
2023/08/08 10:44:14;;;;;;;1.42;0.50;;;;;;;21.22;nan;100804.31;5017752;28;20021;-68
2023/08/08 10:46:41;;;;;;;2.17;0.80;;;;;;;21.28;nan;100797.00;5016904;28;20471;-71
2023/08/08 10:49:07;;;;;;;1.77;0.90;;;;;;;21.25;nan;100779.63;5019562;28;20041;-70
2023/08/08 10:51:39;;;;;;;0.95;0.88;;;;;;;21.28;nan;100795.13;5019276;28;20034;-72
2023/08/08 10:54:30;;;;;;;0.50;0.50;;;;;;;21.33;nan;100787.00;5016492;28;20116;-71
2023/08/08 10:56:59;;;;;;;1.58;0.90;;;;;;;21.41;nan;100785.63;5014294;28;20108;-70
2023/08/08 10:59:36;;;;;;;;;;;;;;;21.37;nan;100776.53;5014908;28;20032;-69
2023/08/08 11:02:01;;;;;;;0.80;0.65;;;;;;;21.28;nan;100751.47;5015580;28;19963;-71
2023/08/08 11:04:29;;;;;;;0.90;0.75;;;;;;;21.53;nan;100761.09;5019352;28;20061;-67
2023/08/08 11:06:55;;;;;;;1.55;0.75;;;;;;;21.64;nan;100778.59;5016045;28;20037;-69
2023/08/08 11:09:21;;;;;;;1.13;0.70;;;;;;;21.65;nan;100772.16;5017342;28;20502;-69
2023/08/08 11:11:46;;;;;;;0.98;0.73;;;;;;;21.67;nan;100773.47;5016670;28;20026;-69
2023/08/08 11:14:17;;;;;;;1.83;0.70;;;;;;;21.78;nan;100781.34;5015994;28;20494;-69
2023/08/08 11:16:43;;;;;;;3.42;0.80;;;;;;;21.77;nan;100777.09;5019257;28;20029;-68
2023/08/08 11:19:10;;;;;;;1.30;0.80;;;;;;;21.87;nan;100787.66;5016732;28;20076;-68
2023/08/08 11:21:40;;;;;;;1.80;0.85;;;;;;;21.87;nan;100772.38;5019671;28;20053;-69
2023/08/08 11:24:06;;;;;;;1.63;0.80;;;;;;;22.04;nan;100787.13;5020418;28;20072;-68
2023/08/08 11:26:33;;;;;;;1.98;0.70;;;;;;;22.11;nan;100776.84;5018726;28;20030;-68
2023/08/08 11:29:00;;;;;;;1.67;0.95;;;;;;;22.23;nan;100784.44;5024667;28;20036;-66
2023/08/08 11:31:26;;;;;;;1.92;0.90;;;;;;;22.29;nan;100773.34;5024651;28;20056;-68
2023/08/08 11:33:54;;;;;;;1.33;1.00;;;;;;;22.40;nan;100775.84;5023863;28;20832;-71
2023/08/08 11:36:19;;;;;;;1.33;0.77;;;;;;;22.50;nan;100781.03;5025903;28;20052;-67
2023/08/08 11:38:45;;;;;;;1.15;0.88;;;;;;;22.51;nan;100769.22;5023037;28;20101;-69